createdAt,value
2023-05-05T00:00:11.104Z,174.58
2023-05-05T00:01:10.217Z,175.12
2023-05-05T00:02:10.152Z,175.96
2023-05-05T00:03:11.266Z,173.99
2023-05-05T00:04:11.292Z,172.95
2023-05-05T00:05:11.260Z,174.28
2023-05-05T00:06:10.262Z,176.49
2023-05-05T00:07:10.262Z,174.00
2023-05-05T00:08:11.282Z,175.26
2023-05-05T00:09:10.212Z,173.33
2023-05-05T00:10:10.441Z,174.66
2023-05-05T00:11:10.240Z,172.66
2023-05-05T00:12:11.347Z,175.58
2023-05-05T00:13:10.452Z,173.94
2023-05-05T00:14:10.430Z,173.60
2023-05-05T00:15:10.379Z,175.16
2023-05-05T00:16:10.379Z,174.29
2023-05-05T00:17:10.471Z,175.09
2023-05-05T00:18:10.428Z,176.77
2023-05-05T00:19:11.462Z,172.61
2023-05-05T00:20:10.597Z,173.51
2023-05-05T00:21:10.462Z,174.14
2023-05-05T00:22:10.444Z,173.91
2023-05-05T00:23:10.494Z,175.48
2023-05-05T00:24:10.522Z,175.38
2023-05-05T00:25:10.457Z,171.16
2023-05-05T00:26:10.502Z,172.27
2023-05-05T00:27:11.525Z,173.39
2023-05-05T00:28:11.592Z,175.60
2023-05-05T00:29:10.494Z,175.64
2023-05-05T00:30:11.515Z,173.91
2023-05-05T00:31:10.623Z,174.64
2023-05-05T00:32:10.544Z,176.36
2023-05-05T00:33:10.565Z,175.61
2023-05-05T00:34:11.713Z,175.56
2023-05-05T00:35:11.581Z,175.29
2023-05-05T00:36:10.595Z,174.01
2023-05-05T00:37:10.656Z,174.38
2023-05-05T00:38:11.616Z,172.43
2023-05-05T00:39:10.659Z,174.24
2023-05-05T00:40:10.747Z,175.48
2023-05-05T00:41:11.759Z,173.59
2023-05-05T00:42:10.777Z,174.71
2023-05-05T00:43:10.790Z,173.88
2023-05-05T00:44:10.862Z,175.18
2023-05-05T00:45:11.871Z,172.14
2023-05-05T00:46:10.801Z,173.47
2023-05-05T00:47:10.811Z,174.19
2023-05-05T00:48:11.980Z,172.95
2023-05-05T00:49:10.971Z,173.47
2023-05-05T00:50:10.920Z,172.21
2023-05-05T00:51:11.980Z,172.32
2023-05-05T00:52:11.062Z,174.65
2023-05-05T00:53:12.139Z,173.36
2023-05-05T00:54:11.189Z,172.51
2023-05-05T00:55:11.123Z,173.15
2023-05-05T00:56:11.232Z,172.39
2023-05-05T00:57:11.294Z,171.99
2023-05-05T00:58:11.317Z,171.86
2023-05-05T00:59:12.247Z,174.65
2023-05-05T01:00:12.367Z,172.84
2023-05-05T01:01:12.371Z,172.36
2023-05-05T01:02:12.353Z,171.99
2023-05-05T01:03:12.494Z,174.63
2023-05-05T01:04:11.547Z,174.13
2023-05-05T01:05:11.563Z,173.12
2023-05-05T01:06:11.547Z,171.55
2023-05-05T01:07:11.518Z,172.73
2023-05-05T01:08:11.640Z,175.01
2023-05-05T01:09:11.687Z,171.43
2023-05-05T01:10:19.620Z,171.02
2023-05-05T01:11:12.649Z,171.23
2023-05-05T01:12:12.631Z,172.10
2023-05-05T01:13:11.637Z,171.87
2023-05-05T01:14:12.709Z,173.45
2023-05-05T01:15:12.645Z,174.77
2023-05-05T01:16:11.647Z,175.54
2023-05-05T01:17:12.618Z,174.60
2023-05-05T01:18:11.551Z,173.73
2023-05-05T01:19:12.575Z,172.00
2023-05-05T01:20:12.643Z,173.69
2023-05-05T01:21:11.562Z,170.41
2023-05-05T01:22:11.616Z,172.59
2023-05-05T01:23:11.518Z,172.87
2023-05-05T01:24:12.614Z,172.21
2023-05-05T01:25:11.627Z,169.24
2023-05-05T01:26:11.502Z,172.57
2023-05-05T01:27:11.517Z,171.25
2023-05-05T01:28:12.524Z,172.31
2023-05-05T01:29:12.586Z,172.91
2023-05-05T01:30:11.535Z,172.40
2023-05-05T01:31:12.554Z,172.68
2023-05-05T01:32:12.581Z,173.47
2023-05-05T01:33:12.560Z,171.53
2023-05-05T01:34:11.437Z,171.30
2023-05-05T01:35:12.502Z,171.55
2023-05-05T01:36:11.507Z,170.18
2023-05-05T01:37:11.466Z,169.47
2023-05-05T01:38:12.410Z,171.41
2023-05-05T01:39:12.422Z,168.97
2023-05-05T01:40:11.504Z,172.10
2023-05-05T01:41:11.439Z,172.78
2023-05-05T01:42:11.447Z,170.34
2023-05-05T01:43:11.378Z,170.75
2023-05-05T01:44:12.419Z,169.45
2023-05-05T01:45:11.514Z,172.14
2023-05-05T01:46:11.570Z,170.16
2023-05-05T01:47:11.660Z,169.95
2023-05-05T01:48:12.622Z,170.55
2023-05-05T01:49:11.706Z,171.85
2023-05-05T01:50:11.752Z,169.23
2023-05-05T01:51:12.727Z,170.27
2023-05-05T01:52:11.801Z,169.44
2023-05-05T01:53:11.927Z,168.85
2023-05-05T01:54:12.876Z,169.49
2023-05-05T01:55:11.960Z,167.98
2023-05-05T01:56:11.849Z,169.36
2023-05-05T01:57:12.926Z,168.52
2023-05-05T01:58:11.999Z,166.68
2023-05-05T01:59:12.974Z,170.66
2023-05-05T02:00:13.040Z,168.92
2023-05-05T02:01:12.057Z,170.00
2023-05-05T02:02:12.142Z,171.10
2023-05-05T02:03:13.155Z,169.92
2023-05-05T02:04:13.070Z,170.67
2023-05-05T02:05:13.168Z,167.93
2023-05-05T02:06:12.133Z,171.07
2023-05-05T02:07:12.262Z,170.74
2023-05-05T02:08:12.209Z,169.54
2023-05-05T02:09:13.329Z,169.64
2023-05-05T02:10:12.367Z,171.42
2023-05-05T02:11:13.301Z,170.67
2023-05-05T02:12:12.336Z,169.41
2023-05-05T02:13:12.586Z,169.53
2023-05-05T02:14:12.500Z,170.95
2023-05-05T02:15:12.483Z,168.05
2023-05-05T02:16:12.553Z,171.61
2023-05-05T02:17:12.634Z,166.19
2023-05-05T02:18:13.678Z,168.05
2023-05-05T02:19:13.731Z,166.71
2023-05-05T02:20:13.735Z,168.99
2023-05-05T02:21:12.693Z,169.39
2023-05-05T02:22:13.820Z,169.09
2023-05-05T02:23:13.847Z,167.81
2023-05-05T02:24:12.800Z,169.96
2023-05-05T02:25:13.964Z,169.54
2023-05-05T02:26:13.951Z,166.45
2023-05-05T02:27:13.013Z,169.77
2023-05-05T02:28:13.021Z,167.07
2023-05-05T02:29:13.045Z,170.48
2023-05-05T02:30:13.129Z,167.15
2023-05-05T02:31:13.155Z,167.79
2023-05-05T02:32:13.175Z,169.65
2023-05-05T02:33:13.231Z,169.39
2023-05-05T02:34:14.216Z,170.92
2023-05-05T02:35:13.216Z,170.92
2023-05-05T02:36:14.253Z,167.05
2023-05-05T02:37:14.369Z,167.65
2023-05-05T02:38:14.407Z,168.39
2023-05-05T02:39:14.402Z,166.78
2023-05-05T02:40:14.424Z,166.08
2023-05-05T02:41:14.483Z,165.54
2023-05-05T02:42:13.496Z,169.53
2023-05-05T02:43:13.617Z,168.72
2023-05-05T02:44:13.620Z,167.42
2023-05-05T02:45:13.638Z,166.79
2023-05-05T02:46:13.769Z,167.77
2023-05-05T02:47:14.751Z,169.58
2023-05-05T02:48:13.801Z,168.52
2023-05-05T02:49:13.764Z,168.82
2023-05-05T02:50:14.900Z,171.74
2023-05-05T02:51:14.844Z,165.65
2023-05-05T02:52:13.890Z,168.48
2023-05-05T02:53:13.999Z,169.21
2023-05-05T02:54:13.999Z,170.01
2023-05-05T02:55:15.005Z,167.73
2023-05-05T02:56:15.108Z,168.95
2023-05-05T02:57:14.219Z,170.34
2023-05-05T02:58:15.121Z,166.15
2023-05-05T02:59:16.157Z,171.13
2023-05-05T03:00:14.326Z,173.00
2023-05-05T03:01:14.400Z,168.00
2023-05-05T03:02:14.425Z,168.61
2023-05-05T03:03:14.566Z,166.97
2023-05-05T03:04:15.552Z,165.34
2023-05-05T03:05:15.637Z,166.64
2023-05-05T03:06:14.655Z,166.35
2023-05-05T03:07:14.676Z,164.58
2023-05-05T03:08:14.689Z,167.00
2023-05-05T03:09:15.809Z,167.55
2023-05-05T03:10:14.832Z,169.33
2023-05-05T03:11:15.916Z,169.41
2023-05-05T03:12:14.871Z,169.02
2023-05-05T03:13:16.011Z,168.86
2023-05-05T03:14:15.097Z,164.86
2023-05-05T03:15:15.126Z,169.25
2023-05-05T03:16:15.139Z,166.71
2023-05-05T03:17:15.144Z,167.28
2023-05-05T03:18:16.309Z,167.38
2023-05-05T03:19:15.307Z,167.06
2023-05-05T03:20:16.334Z,164.56
2023-05-05T03:21:15.496Z,167.00
2023-05-05T03:22:15.498Z,166.92
2023-05-05T03:23:16.519Z,168.33
2023-05-05T03:24:16.650Z,167.14
2023-05-05T03:25:16.708Z,167.41
2023-05-05T03:26:15.701Z,165.17
2023-05-05T03:27:15.800Z,167.57
2023-05-05T03:28:15.879Z,165.63
2023-05-05T03:29:16.045Z,168.23
2023-05-05T03:30:15.910Z,165.34
2023-05-05T03:31:17.020Z,164.06
2023-05-05T03:32:17.145Z,166.29
2023-05-05T03:33:16.213Z,167.74
2023-05-05T03:34:16.271Z,168.40
2023-05-05T03:35:17.245Z,165.51
2023-05-05T03:36:16.341Z,166.33
2023-05-05T03:37:17.358Z,166.95
2023-05-05T03:38:17.394Z,165.12
2023-05-05T03:39:16.513Z,165.99
2023-05-05T03:40:17.515Z,165.32
2023-05-05T03:41:17.579Z,166.47
2023-05-05T03:42:17.653Z,168.79
2023-05-05T03:43:16.757Z,165.08
2023-05-05T03:44:17.739Z,167.56
2023-05-05T03:45:17.892Z,165.84
2023-05-05T03:46:18.036Z,166.92
2023-05-05T03:47:16.928Z,167.52
2023-05-05T03:48:17.010Z,168.17
2023-05-05T03:49:17.050Z,164.46
2023-05-05T03:50:17.019Z,164.99
2023-05-05T03:51:18.232Z,167.76
2023-05-05T03:52:17.189Z,166.71
2023-05-05T03:53:17.287Z,164.39
2023-05-05T03:54:18.328Z,166.43
2023-05-05T03:55:17.294Z,164.16
2023-05-05T03:56:18.350Z,169.54
2023-05-05T03:57:18.458Z,164.11
2023-05-05T03:58:17.453Z,163.35
2023-05-05T03:59:18.526Z,164.49
2023-05-05T04:00:18.641Z,163.07
2023-05-05T04:01:17.670Z,162.56
2023-05-05T04:02:19.070Z,166.76
2023-05-05T04:03:18.018Z,162.56
2023-05-05T04:04:17.937Z,161.92
2023-05-05T04:05:17.890Z,163.67
2023-05-05T04:06:17.949Z,162.53
2023-05-05T04:07:18.014Z,162.95
2023-05-05T04:08:18.060Z,164.66
2023-05-05T04:09:19.050Z,163.23
2023-05-05T04:10:19.144Z,163.75
2023-05-05T04:11:19.260Z,161.48
2023-05-05T04:12:18.288Z,165.79
2023-05-05T04:13:18.381Z,165.48
2023-05-05T04:14:19.384Z,163.15
2023-05-05T04:15:18.392Z,166.68
2023-05-05T04:16:19.630Z,163.50
2023-05-05T04:17:18.656Z,166.33
2023-05-05T04:18:18.606Z,162.48
2023-05-05T04:19:18.676Z,163.55
2023-05-05T04:20:18.679Z,165.70
2023-05-05T04:21:18.747Z,163.85
2023-05-05T04:22:18.882Z,163.64
2023-05-05T04:23:18.917Z,161.74
2023-05-05T04:24:19.982Z,161.34
2023-05-05T04:25:19.040Z,163.63
2023-05-05T04:26:20.057Z,161.91
2023-05-05T04:27:19.136Z,163.22
2023-05-05T04:28:21.786Z,162.09
2023-05-05T04:29:19.225Z,162.70
2023-05-05T04:30:20.183Z,159.71
2023-05-05T04:31:20.337Z,160.50
2023-05-05T04:32:20.217Z,163.92
2023-05-05T04:33:19.202Z,161.53
2023-05-05T04:34:19.191Z,161.57
2023-05-05T04:35:20.167Z,161.56
2023-05-05T04:36:20.188Z,163.72
2023-05-05T04:37:19.098Z,163.35
2023-05-05T04:38:19.210Z,159.86
2023-05-05T04:39:19.102Z,158.34
2023-05-05T04:40:20.099Z,162.50
2023-05-05T04:41:20.107Z,162.32
2023-05-05T04:42:20.073Z,163.36
2023-05-05T04:43:19.054Z,160.15
2023-05-05T04:44:20.092Z,163.65
2023-05-05T04:45:20.051Z,159.45
2023-05-05T04:46:20.489Z,160.80
2023-05-05T04:47:19.026Z,159.20
2023-05-05T04:48:19.124Z,160.64
2023-05-05T04:49:19.053Z,159.86
2023-05-05T04:50:20.102Z,161.20
2023-05-05T04:51:20.217Z,160.59
2023-05-05T04:52:19.271Z,162.89
2023-05-05T04:53:20.351Z,160.16
2023-05-05T04:54:20.369Z,158.63
2023-05-05T04:55:19.417Z,161.93
2023-05-05T04:56:19.521Z,158.31
2023-05-05T04:57:20.463Z,157.58
2023-05-05T04:58:20.540Z,159.44
2023-05-05T04:59:20.675Z,161.88
2023-05-05T05:00:19.663Z,158.64
2023-05-05T05:01:20.837Z,160.08
2023-05-05T05:02:19.937Z,158.08
2023-05-05T05:03:20.851Z,157.59
2023-05-05T05:04:20.899Z,161.36
2023-05-05T05:05:21.030Z,158.37
2023-05-05T05:06:20.096Z,157.56
2023-05-05T05:07:20.087Z,152.46
2023-05-05T05:08:20.182Z,155.29
2023-05-05T05:09:20.141Z,155.37
2023-05-05T05:10:21.227Z,155.45
2023-05-05T05:11:20.289Z,151.75
2023-05-05T05:12:21.337Z,155.24
2023-05-05T05:13:20.426Z,149.31
2023-05-05T05:14:20.378Z,147.56
2023-05-05T05:15:20.360Z,146.28
2023-05-05T05:16:20.445Z,141.27
2023-05-05T05:17:21.423Z,142.22
2023-05-05T05:18:20.395Z,140.12
2023-05-05T05:19:20.478Z,142.13
2023-05-05T05:20:21.478Z,141.10
2023-05-05T05:21:20.555Z,137.60
2023-05-05T05:22:20.685Z,141.18
2023-05-05T05:23:20.601Z,138.62
2023-05-05T05:24:20.540Z,136.90
2023-05-05T05:25:20.617Z,133.40
2023-05-05T05:26:20.650Z,135.90
2023-05-05T05:27:20.577Z,130.53
2023-05-05T05:28:20.636Z,130.91
2023-05-05T05:29:20.634Z,131.91
2023-05-05T05:30:20.652Z,129.52
2023-05-05T05:31:21.623Z,130.08
2023-05-05T05:32:20.849Z,132.52
2023-05-05T05:33:21.986Z,134.18
2023-05-05T05:34:21.873Z,134.10
2023-05-05T05:35:21.666Z,134.16
2023-05-05T05:36:21.574Z,136.93
2023-05-05T05:37:21.591Z,141.52
2023-05-05T05:38:21.866Z,142.98
2023-05-05T05:39:21.673Z,145.86
2023-05-05T05:40:21.617Z,144.24
2023-05-05T05:41:20.958Z,146.47
2023-05-05T05:42:21.769Z,148.07
2023-05-05T05:43:21.912Z,145.24
2023-05-05T05:44:22.049Z,146.10
2023-05-05T05:45:20.719Z,152.62
2023-05-05T05:46:20.665Z,149.32
2023-05-05T05:47:20.588Z,152.10
2023-05-05T05:48:20.605Z,152.85
2023-05-05T05:49:22.430Z,153.56
2023-05-05T05:50:21.080Z,150.98
2023-05-05T05:51:21.761Z,154.36
2023-05-05T05:52:20.743Z,152.26
2023-05-05T05:53:20.927Z,149.95
2023-05-05T05:54:22.164Z,159.75
2023-05-05T05:55:21.038Z,157.92
2023-05-05T05:56:20.905Z,149.96
2023-05-05T05:57:21.404Z,152.51
2023-05-05T05:58:21.145Z,138.70
2023-05-05T05:59:20.907Z,130.76
2023-05-05T06:00:22.496Z,122.92
2023-05-05T06:01:21.333Z,120.61
2023-05-05T06:02:22.196Z,116.13
2023-05-05T06:03:22.404Z,111.20
2023-05-05T06:04:21.256Z,106.03
2023-05-05T06:05:21.263Z,102.54
2023-05-05T06:06:21.120Z,101.64
2023-05-05T06:07:21.148Z,89.79
2023-05-05T06:08:22.546Z,86.12
2023-05-05T06:09:21.951Z,84.96
2023-05-05T06:10:28.024Z,84.32
2023-05-05T06:11:21.919Z,84.50
2023-05-05T06:12:21.874Z,80.24
2023-05-05T06:13:22.664Z,76.65
2023-05-05T06:14:20.883Z,68.97
2023-05-05T06:15:20.815Z,69.26
2023-05-05T06:16:20.835Z,71.24
2023-05-05T06:17:20.854Z,69.37
2023-05-05T06:18:21.894Z,66.08
2023-05-05T06:19:20.807Z,60.31
2023-05-05T06:20:20.879Z,53.57
2023-05-05T06:21:21.827Z,56.10
2023-05-05T06:22:20.936Z,50.63
2023-05-05T06:23:21.969Z,52.34
2023-05-05T06:24:21.329Z,55.29
2023-05-05T06:25:21.104Z,46.83
2023-05-05T06:26:21.155Z,58.19
2023-05-05T06:27:21.221Z,54.58
2023-05-05T06:28:21.198Z,49.34
2023-05-05T06:29:21.330Z,37.72
2023-05-05T06:30:22.067Z,41.95
2023-05-05T06:31:21.529Z,32.25
2023-05-05T06:32:21.736Z,40.84
2023-05-05T06:33:22.751Z,31.92
2023-05-05T06:34:21.609Z,36.54
2023-05-05T06:35:21.597Z,27.94
2023-05-05T06:36:21.711Z,32.31
2023-05-05T06:37:21.722Z,36.64
2023-05-05T06:38:22.065Z,37.10
2023-05-05T06:39:22.831Z,35.52
2023-05-05T06:40:21.794Z,29.04
2023-05-05T06:41:22.898Z,26.80
2023-05-05T06:42:21.939Z,30.56
2023-05-05T06:43:22.050Z,33.66
2023-05-05T06:44:21.997Z,26.92
2023-05-05T06:45:23.090Z,27.91
2023-05-05T06:46:23.089Z,23.53
2023-05-05T06:47:23.188Z,34.83
2023-05-05T06:48:22.177Z,25.51
2023-05-05T06:49:22.127Z,27.49
2023-05-05T06:50:23.153Z,33.85
2023-05-05T06:51:22.231Z,31.45
2023-05-05T06:52:23.439Z,39.55
2023-05-05T06:53:22.218Z,40.12
2023-05-05T06:54:22.309Z,38.64
2023-05-05T06:55:22.350Z,43.52
2023-05-05T06:56:22.370Z,36.93
2023-05-05T06:57:24.033Z,27.35
2023-05-05T06:58:23.346Z,34.49
2023-05-05T06:59:23.493Z,42.63
2023-05-05T07:00:22.476Z,42.71
2023-05-05T07:01:22.509Z,43.15
2023-05-05T07:02:25.333Z,40.66
2023-05-05T07:03:22.510Z,40.83
2023-05-05T07:04:23.453Z,41.31
2023-05-05T07:05:23.492Z,42.53
2023-05-05T07:06:22.540Z,36.28
2023-05-05T07:07:22.505Z,30.50
2023-05-05T07:08:23.438Z,32.57
2023-05-05T07:09:22.427Z,38.87
2023-05-05T07:10:22.417Z,47.38
2023-05-05T07:11:22.446Z,44.76
2023-05-05T07:12:22.436Z,40.77
2023-05-05T07:13:22.487Z,41.89
2023-05-05T07:14:24.391Z,41.53
2023-05-05T07:15:28.739Z,37.80
2023-05-05T07:16:23.525Z,38.26
2023-05-05T07:17:22.435Z,39.04
2023-05-05T07:18:22.491Z,41.12
2023-05-05T07:19:23.540Z,45.74
2023-05-05T07:20:23.372Z,45.78
2023-05-05T07:21:22.340Z,43.48
2023-05-05T07:22:22.323Z,45.61
2023-05-05T07:23:22.318Z,36.58
2023-05-05T07:24:23.305Z,41.11
2023-05-05T07:25:22.348Z,38.95
2023-05-05T07:26:22.268Z,36.08
2023-05-05T07:27:23.275Z,38.07
2023-05-05T07:28:23.360Z,37.95
2023-05-05T07:29:23.457Z,37.39
2023-05-05T07:30:23.662Z,34.90
2023-05-05T07:31:23.490Z,36.77
2023-05-05T07:32:22.638Z,34.77
2023-05-05T07:33:23.591Z,34.02
2023-05-05T07:34:23.651Z,33.45
2023-05-05T07:35:23.758Z,32.80
2023-05-05T07:36:22.784Z,28.76
2023-05-05T07:37:22.859Z,28.34
2023-05-05T07:38:22.956Z,26.05
2023-05-05T07:39:22.995Z,25.74
2023-05-05T07:40:22.984Z,26.46
2023-05-05T07:41:23.048Z,29.03
2023-05-05T07:42:23.124Z,27.80
2023-05-05T07:43:23.194Z,25.86
2023-05-05T07:44:23.154Z,25.00
2023-05-05T07:45:23.212Z,25.82
2023-05-05T07:46:23.229Z,25.00
2023-05-05T07:47:23.246Z,26.81
2023-05-05T07:48:23.464Z,26.47
2023-05-05T07:49:23.387Z,25.00
2023-05-05T07:50:23.416Z,25.67
2023-05-05T07:51:23.736Z,33.84
2023-05-05T07:52:37.340Z,30.89
2023-05-05T07:53:25.452Z,30.92
2023-05-05T07:54:24.444Z,30.70
2023-05-05T07:55:24.486Z,24.89
2023-05-05T07:56:23.452Z,26.28
2023-05-05T07:57:23.477Z,36.97
2023-05-05T07:58:23.412Z,38.35
2023-05-05T07:59:24.488Z,44.85
2023-05-05T08:00:23.419Z,52.04
2023-05-05T08:01:23.490Z,62.80
2023-05-05T08:02:24.492Z,61.38
2023-05-05T08:03:23.522Z,66.75
2023-05-05T08:04:23.459Z,77.11
2023-05-05T08:05:23.354Z,80.93
2023-05-05T08:06:23.398Z,84.20
2023-05-05T08:07:23.403Z,88.49
2023-05-05T08:08:23.333Z,92.69
2023-05-05T08:09:23.398Z,100.70
2023-05-05T08:10:24.376Z,103.30
2023-05-05T08:11:23.319Z,107.29
2023-05-05T08:12:24.353Z,121.77
2023-05-05T08:13:24.336Z,125.06
2023-05-05T08:14:23.363Z,126.37
2023-05-05T08:15:24.482Z,131.47
2023-05-05T08:16:23.561Z,138.06
2023-05-05T08:17:23.637Z,145.23
2023-05-05T08:18:23.555Z,156.24
2023-05-05T08:19:29.202Z,158.16
2023-05-05T08:20:24.557Z,158.39
2023-05-05T08:21:23.563Z,159.15
2023-05-05T08:22:24.545Z,162.12
2023-05-05T08:23:24.605Z,166.97
2023-05-05T08:24:24.516Z,171.36
2023-05-05T08:25:25.566Z,175.53
2023-05-05T08:26:23.583Z,177.75
2023-05-05T08:27:23.486Z,182.92
2023-05-05T08:28:24.490Z,181.70
2023-05-05T08:29:23.526Z,184.14
2023-05-05T08:30:23.572Z,188.25
2023-05-05T08:31:24.492Z,193.07
2023-05-05T08:32:24.507Z,195.75
2023-05-05T08:33:24.612Z,196.61
2023-05-05T08:34:23.720Z,200.37
2023-05-05T08:35:24.629Z,202.88
2023-05-05T08:36:23.699Z,205.68
2023-05-05T08:37:23.792Z,209.22
2023-05-05T08:38:23.885Z,210.17
2023-05-05T08:39:24.863Z,215.73
2023-05-05T08:40:24.891Z,209.00
2023-05-05T08:41:23.952Z,210.51
2023-05-05T08:42:36.087Z,212.89
2023-05-05T08:43:25.441Z,213.21
2023-05-05T08:44:24.995Z,214.55
2023-05-05T08:45:24.992Z,183.72
2023-05-05T08:46:24.005Z,150.79
2023-05-05T08:47:25.004Z,107.36
2023-05-05T08:48:24.977Z,91.66
2023-05-05T08:49:24.126Z,86.10
2023-05-05T08:50:24.941Z,84.73
2023-05-05T08:51:23.997Z,33.89
2023-05-05T08:52:24.034Z,15.65
2023-05-05T08:53:23.934Z,25.82
2023-05-05T08:54:24.919Z,28.33
2023-05-05T08:55:24.009Z,19.32
2023-05-05T08:56:23.969Z,22.66
2023-05-05T08:57:23.914Z,27.17
2023-05-05T08:58:25.246Z,37.30
2023-05-05T08:59:24.926Z,40.11
2023-05-05T09:00:24.994Z,50.41
2023-05-05T09:01:25.064Z,47.48
2023-05-05T09:02:24.070Z,39.23
2023-05-05T09:03:24.005Z,40.88
2023-05-05T09:04:25.008Z,36.34
2023-05-05T09:05:24.148Z,45.70
2023-05-05T09:06:24.128Z,47.13
2023-05-05T09:07:24.088Z,54.82
2023-05-05T09:08:25.252Z,54.05
2023-05-05T09:09:24.296Z,54.46
2023-05-05T09:10:24.428Z,50.59
2023-05-05T09:11:25.373Z,53.60
2023-05-05T09:12:24.380Z,56.90
2023-05-05T09:13:25.528Z,54.69
2023-05-05T09:14:24.517Z,59.82
2023-05-05T09:15:24.504Z,48.15
2023-05-05T09:16:24.631Z,55.65
2023-05-05T09:17:24.623Z,55.45
2023-05-05T09:18:24.705Z,54.57
2023-05-05T09:19:24.703Z,58.17
2023-05-05T09:20:24.764Z,50.28
2023-05-05T09:21:24.821Z,60.84
2023-05-05T09:22:25.797Z,55.35
2023-05-05T09:23:24.854Z,59.44
2023-05-05T09:24:25.852Z,57.17
2023-05-05T09:25:24.843Z,60.69
2023-05-05T09:26:25.827Z,64.54
2023-05-05T09:27:25.839Z,61.27
2023-05-05T09:28:24.930Z,60.62
2023-05-05T09:29:25.857Z,64.08
2023-05-05T09:30:24.961Z,67.90
2023-05-05T09:31:24.972Z,74.81
2023-05-05T09:32:26.587Z,79.88
2023-05-05T09:33:26.189Z,81.51
2023-05-05T09:34:26.154Z,86.61
2023-05-05T09:35:25.247Z,87.14
2023-05-05T09:36:25.265Z,93.24
2023-05-05T09:37:25.279Z,91.02
2023-05-05T09:38:26.334Z,100.07
2023-05-05T09:39:26.230Z,105.31
2023-05-05T09:40:25.205Z,109.82
2023-05-05T09:41:25.321Z,108.60
2023-05-05T09:42:25.292Z,116.76
2023-05-05T09:43:26.365Z,116.27
2023-05-05T09:44:25.361Z,115.48
2023-05-05T09:45:26.363Z,120.96
2023-05-05T09:46:26.452Z,126.34
2023-05-05T09:47:29.947Z,123.24
2023-05-05T09:48:25.419Z,117.39
2023-05-05T09:49:25.606Z,89.60
2023-05-05T09:50:25.355Z,100.38
2023-05-05T09:51:25.293Z,122.43
2023-05-05T09:52:26.337Z,130.22
2023-05-05T09:53:25.559Z,129.72
2023-05-05T09:54:25.475Z,108.27
2023-05-05T09:55:25.330Z,86.55
2023-05-05T09:56:25.255Z,82.98
2023-05-05T09:57:25.314Z,75.60
2023-05-05T09:58:25.342Z,74.62
2023-05-05T09:59:26.231Z,78.21
2023-05-05T10:00:25.293Z,86.40
2023-05-05T10:01:25.268Z,83.10
2023-05-05T10:02:26.270Z,81.17
2023-05-05T10:03:25.321Z,83.79
2023-05-05T10:04:26.357Z,82.61
2023-05-05T10:05:25.323Z,82.00
2023-05-05T10:06:25.304Z,81.76
2023-05-05T10:07:26.375Z,83.26
2023-05-05T10:08:26.434Z,87.67
2023-05-05T10:09:25.505Z,89.17
2023-05-05T10:10:28.576Z,82.67
2023-05-05T10:11:26.482Z,86.91
2023-05-05T10:12:25.463Z,86.69
2023-05-05T10:13:25.456Z,86.85
2023-05-05T10:14:25.483Z,87.07
2023-05-05T10:15:26.448Z,86.51
2023-05-05T10:16:26.803Z,87.04
2023-05-05T10:17:25.464Z,89.33
2023-05-05T10:18:25.422Z,87.29
2023-05-05T10:19:26.425Z,84.97
2023-05-05T10:20:25.356Z,91.21
2023-05-05T10:21:25.446Z,96.77
2023-05-05T10:22:25.357Z,104.57
2023-05-05T10:23:25.364Z,107.17
2023-05-05T10:24:25.376Z,106.30
2023-05-05T10:25:25.530Z,103.68
2023-05-05T10:26:25.370Z,107.37
2023-05-05T10:27:25.348Z,113.66
2023-05-05T10:28:25.340Z,95.15
2023-05-05T10:29:25.360Z,96.83
2023-05-05T10:30:25.366Z,106.48
2023-05-05T10:31:26.752Z,116.00
2023-05-05T10:32:50.187Z,114.14
2023-05-05T10:33:32.231Z,114.44
2023-05-05T10:34:26.557Z,114.63
2023-05-05T10:35:26.433Z,116.45
2023-05-05T10:36:25.443Z,119.51
2023-05-05T10:37:25.465Z,123.52
2023-05-05T10:38:26.838Z,120.84
2023-05-05T10:39:25.463Z,118.54
2023-05-05T10:40:26.401Z,114.80
2023-05-05T10:41:25.583Z,119.84
2023-05-05T10:42:25.485Z,114.04
2023-05-05T10:43:26.372Z,110.19
2023-05-05T10:44:26.533Z,108.12
2023-05-05T10:45:25.528Z,95.96
2023-05-05T10:46:26.472Z,93.79
2023-05-05T10:47:25.471Z,93.51
2023-05-05T10:48:25.383Z,101.77
2023-05-05T10:49:26.420Z,99.42
2023-05-05T10:50:26.402Z,95.73
2023-05-05T10:51:38.493Z,95.79
2023-05-05T10:52:26.375Z,96.27
2023-05-05T10:53:25.348Z,97.90
2023-05-05T10:54:25.442Z,98.58
2023-05-05T10:55:25.290Z,99.45
2023-05-05T10:56:26.270Z,107.44
2023-05-05T10:57:25.448Z,107.82
2023-05-05T10:58:25.318Z,108.97
2023-05-05T10:59:25.311Z,109.05
2023-05-05T11:00:25.308Z,107.03
2023-05-05T11:01:25.345Z,110.41
2023-05-05T11:02:26.345Z,110.31
2023-05-05T11:03:25.405Z,114.02
2023-05-05T11:04:25.277Z,118.60
2023-05-05T11:05:25.226Z,116.14
2023-05-05T11:06:26.208Z,116.64
2023-05-05T11:07:26.206Z,125.41
2023-05-05T11:08:25.253Z,123.78
2023-05-05T11:09:25.457Z,124.18
2023-05-05T11:10:26.303Z,122.77
2023-05-05T11:11:25.308Z,128.05
2023-05-05T11:12:26.352Z,126.56
2023-05-05T11:13:25.548Z,130.71
2023-05-05T11:14:26.321Z,118.01
2023-05-05T11:15:25.336Z,116.47
2023-05-05T11:16:26.454Z,118.00
2023-05-05T11:17:25.358Z,119.25
2023-05-05T11:18:26.378Z,113.54
2023-05-05T11:19:25.392Z,119.55
2023-05-05T11:20:25.332Z,125.75
2023-05-05T11:21:25.348Z,120.09
2023-05-05T11:22:26.381Z,121.50
2023-05-05T11:23:25.445Z,117.79
2023-05-05T11:24:26.531Z,117.44
2023-05-05T11:25:26.479Z,114.54
2023-05-05T11:26:26.438Z,117.29
2023-05-05T11:27:26.440Z,122.91
2023-05-05T11:28:26.569Z,121.27
2023-05-05T11:29:26.659Z,126.83
2023-05-05T11:30:25.541Z,133.07
2023-05-05T11:31:26.637Z,135.38
2023-05-05T11:32:25.568Z,131.63
2023-05-05T11:33:25.582Z,129.07
2023-05-05T11:34:26.626Z,123.06
2023-05-05T11:35:26.625Z,131.35
2023-05-05T11:36:26.737Z,150.58
2023-05-05T11:37:25.821Z,164.43
2023-05-05T11:38:25.719Z,165.57
2023-05-05T11:39:25.731Z,170.62
2023-05-05T11:40:26.770Z,174.06
2023-05-05T11:41:25.865Z,178.51
2023-05-05T11:42:26.873Z,183.70
2023-05-05T11:43:25.909Z,185.51
2023-05-05T11:44:25.992Z,184.66
2023-05-05T11:45:26.055Z,191.14
2023-05-05T11:46:26.117Z,192.37
2023-05-05T11:47:27.175Z,195.54
2023-05-05T11:48:26.153Z,198.03
2023-05-05T11:49:27.217Z,201.61
2023-05-05T11:50:26.217Z,203.47
2023-05-05T11:51:27.268Z,204.93
2023-05-05T11:52:26.320Z,208.08
2023-05-05T11:53:27.479Z,211.18
2023-05-05T11:54:26.429Z,214.30
2023-05-05T11:55:26.493Z,214.95
2023-05-05T11:56:26.544Z,215.92
2023-05-05T11:57:26.643Z,218.27
2023-05-05T11:58:26.789Z,219.03
2023-05-05T11:59:26.763Z,220.20
2023-05-05T12:00:27.829Z,221.02
2023-05-05T12:01:26.876Z,224.30
2023-05-05T12:02:26.925Z,225.08
2023-05-05T12:03:27.247Z,224.63
2023-05-05T12:04:27.073Z,228.23
2023-05-05T12:05:27.026Z,230.45
2023-05-05T12:06:27.146Z,229.92
2023-05-05T12:07:27.120Z,230.13
2023-05-05T12:08:27.260Z,232.14
2023-05-05T12:09:27.268Z,234.34
2023-05-05T12:10:27.387Z,233.28
2023-05-05T12:11:27.364Z,234.91
2023-05-05T12:12:28.477Z,234.08
2023-05-05T12:13:27.513Z,232.50
2023-05-05T12:14:27.506Z,233.90
2023-05-05T12:15:28.648Z,232.12
2023-05-05T12:16:27.785Z,232.19
2023-05-05T12:17:28.685Z,231.81
2023-05-05T12:18:27.731Z,232.00
2023-05-05T12:19:28.785Z,232.53
2023-05-05T12:20:28.850Z,231.80
2023-05-05T12:21:28.960Z,228.63
2023-05-05T12:22:28.002Z,231.07
2023-05-05T12:23:28.034Z,230.57
2023-05-05T12:24:29.057Z,229.53
2023-05-05T12:25:29.198Z,227.20
2023-05-05T12:26:28.213Z,226.40
2023-05-05T12:27:28.204Z,225.25
2023-05-05T12:28:28.215Z,226.47
2023-05-05T12:29:28.382Z,224.29
2023-05-05T12:30:28.384Z,221.20
2023-05-05T12:31:28.360Z,224.42
2023-05-05T12:32:28.418Z,226.22
2023-05-05T12:33:28.436Z,226.58
2023-05-05T12:34:28.552Z,228.59
2023-05-05T12:35:28.666Z,227.63